Bronson, Michigan
Current Conditions -  °F | °C
As of 12:14 PM on Saturday 20 Dec 2014 (Local Time) from KOEB Reporting Station
Scattered Clouds Scattered Clouds  
Wind Chill: 31°   Ceiling: Unl
Heat Index: 31°   Visibility: 10mi
Dew Point: 20°   Wind: 0mph
Humidity: 65%   Direction: NA
Pressure: 30.26"   Gusts: NA
Location:  41.87°N, 85.19°W
Report Text: KOEB 201714Z AUTO 00000KT 10SM SCT024 M01/M06 A3026 RMK AO2 T10061064
Loading
Personal Weather Stations






























Interactive Weather Map New forecast layout! Learn more

10-Day Weather Forecast

Advertisements
Track Severe Weather on mobile